Time,TemperatureF,DewpointF,PressureIn,WindDirection,WindDirectionDegrees,WindSpeedMPH,WindSpeedGustMPH,Humidity,HourlyPrecipIn,Conditions,Clouds,dailyrainin,SoftwareType,DateUTC
2013-02-10 00:01:00,36.3,34.0,29.26,SE,136,11.0,15.0,91,0.08,,,0.10,meteohub,2013-02-10 06:01:00,
2013-02-10 00:06:00,36.3,34.0,29.26,South,171,4.0,16.0,91,0.07,,,0.10,meteohub,2013-02-10 06:06:00,
2013-02-10 00:11:00,36.3,34.2,29.26,SSE,148,5.0,16.0,92,0.06,,,0.10,meteohub,2013-02-10 06:11:00,
2013-02-10 00:16:00,36.3,34.2,29.26,South,171,5.0,16.0,92,0.05,,,0.10,meteohub,2013-02-10 06:16:00,
2013-02-10 00:21:00,36.3,34.2,29.26,South,169,4.0,11.0,92,0.04,,,0.10,meteohub,2013-02-10 06:21:00,
2013-02-10 00:26:00,36.5,34.3,29.26,SSE,156,5.0,14.0,92,0.03,,,0.10,meteohub,2013-02-10 06:26:00,
2013-02-10 00:31:00,36.7,34.5,29.26,South,173,3.0,14.0,92,0.02,,,0.10,meteohub,2013-02-10 06:31:00,
2013-02-10 00:36:00,36.7,34.5,29.26,SE,145,5.0,13.0,92,0.01,,,0.10,meteohub,2013-02-10 06:36:00,
2013-02-10 00:41:00,36.7,34.5,29.26,SSE,148,9.0,13.0,92,0.03,,,0.12,meteohub,2013-02-10 06:41:00,
2013-02-10 00:46:00,36.7,34.5,29.26,SSE,167,4.0,13.0,92,0.03,,,0.13,meteohub,2013-02-10 06:46:00,
2013-02-10 00:51:00,36.7,34.9,29.26,South,183,5.0,13.0,93,0.03,,,0.13,meteohub,2013-02-10 06:51:00,
2013-02-10 00:56:00,36.7,34.9,29.24,SSE,167,5.0,13.0,93,0.03,,,0.13,meteohub,2013-02-10 06:56:00,
2013-02-10 01:01:00,36.9,35.1,29.24,SE,146,5.0,12.0,93,0.03,,,0.13,meteohub,2013-02-10 07:01:00,
2013-02-10 01:06:00,36.9,35.1,29.24,SSE,148,10.0,12.0,93,0.03,,,0.13,meteohub,2013-02-10 07:06:00,
2013-02-10 01:11:00,37.0,35.2,29.23,SSE,148,3.0,12.0,93,0.03,,,0.13,meteohub,2013-02-10 07:11:00,
2013-02-10 01:17:00,37.0,35.2,29.23,SSE,167,2.0,17.0,93,0.03,,,0.13,meteohub,2013-02-10 07:17:00,
2013-02-10 01:22:00,37.0,35.2,29.23,South,177,3.0,17.0,93,0.03,,,0.13,meteohub,2013-02-10 07:22:00,
2013-02-10 01:27:00,37.2,35.4,29.23,SSE,166,3.0,15.0,93,0.03,,,0.13,meteohub,2013-02-10 07:27:00,
2013-02-10 01:32:00,37.2,35.4,29.23,SSE,155,10.0,15.0,93,0.03,,,0.13,meteohub,2013-02-10 07:32:00,
2013-02-10 01:36:00,37.2,35.4,29.22,SSE,165,4.0,14.0,93,0.02,,,0.13,meteohub,2013-02-10 07:36:00,
2013-02-10 01:42:00,37.6,35.8,29.22,SSE,164,9.0,14.0,93,0.01,,,0.13,meteohub,2013-02-10 07:42:00,
2013-02-10 01:47:00,37.6,35.8,29.22,SSE,157,5.0,16.0,93,0.00,,,0.13,meteohub,2013-02-10 07:47:00,
2013-02-10 01:52:00,37.6,35.8,29.23,SSE,155,7.0,16.0,93,0.00,,,0.13,meteohub,2013-02-10 07:52:00,
2013-02-10 01:57:00,37.8,36.0,29.22,SSE,157,6.0,16.0,93,0.00,,,0.13,meteohub,2013-02-10 07:57:00,
2013-02-10 02:02:00,37.8,36.0,29.22,South,169,4.0,12.0,93,0.00,,,0.13,meteohub,2013-02-10 08:02:00,
2013-02-10 02:07:00,37.8,36.0,29.22,SSE,167,5.0,12.0,93,0.00,,,0.13,meteohub,2013-02-10 08:07:00,
2013-02-10 02:12:00,37.8,35.6,29.22,SE,146,2.0,13.0,92,0.00,,,0.13,meteohub,2013-02-10 08:12:00,
2013-02-10 02:17:00,37.9,36.1,29.21,South,169,7.0,13.0,93,0.00,,,0.13,meteohub,2013-02-10 08:17:00,
2013-02-10 02:22:00,37.9,36.1,29.21,SSE,159,5.0,13.0,93,0.00,,,0.13,meteohub,2013-02-10 08:22:00,
2013-02-10 02:27:00,37.9,36.1,29.21,SSE,156,9.0,15.0,93,0.00,,,0.13,meteohub,2013-02-10 08:27:00,
2013-02-10 02:32:00,38.1,36.3,29.20,SSE,155,4.0,15.0,93,0.00,,,0.13,meteohub,2013-02-10 08:32:00,
2013-02-10 02:37:00,38.1,36.0,29.20,SSE,153,5.0,13.0,92,0.00,,,0.13,meteohub,2013-02-10 08:37:00,
2013-02-10 02:42:00,38.3,36.1,29.19,SSE,148,5.0,13.0,92,0.01,,,0.14,meteohub,2013-02-10 08:42:00,
2013-02-10 02:47:00,38.5,36.3,29.19,ESE,121,5.0,13.0,92,0.01,,,0.14,meteohub,2013-02-10 08:47:00,
2013-02-10 02:52:00,38.5,36.7,29.18,ESE,123,7.0,17.0,93,0.01,,,0.14,meteohub,2013-02-10 08:52:00,
2013-02-10 02:57:00,38.5,36.3,29.18,South,183,6.0,17.0,92,0.01,,,0.14,meteohub,2013-02-10 08:57:00,
2013-02-10 03:02:00,38.5,36.7,29.18,South,180,4.0,12.0,93,0.01,,,0.14,meteohub,2013-02-10 09:02:00,
2013-02-10 03:07:00,38.5,36.3,29.18,SE,138,5.0,14.0,92,0.01,,,0.14,meteohub,2013-02-10 09:07:00,
2013-02-10 03:12:00,38.5,36.7,29.17,SE,146,9.0,14.0,93,0.01,,,0.14,meteohub,2013-02-10 09:12:00,
2013-02-10 03:17:00,38.5,36.7,29.17,SE,132,2.0,14.0,93,0.02,,,0.15,meteohub,2013-02-10 09:17:00,
2013-02-10 03:22:00,38.5,36.7,29.17,ESE,115,10.0,14.0,93,0.02,,,0.15,meteohub,2013-02-10 09:22:00,
2013-02-10 03:27:00,38.5,36.7,29.16,SE,144,2.0,14.0,93,0.04,,,0.17,meteohub,2013-02-10 09:27:00,
2013-02-10 03:32:00,38.5,36.7,29.16,South,169,3.0,14.0,93,0.05,,,0.18,meteohub,2013-02-10 09:32:00,
2013-02-10 03:37:00,38.7,36.9,29.16,SSE,163,4.0,15.0,93,0.06,,,0.19,meteohub,2013-02-10 09:37:00,
2013-02-10 03:42:00,38.7,37.0,29.14,SE,140,5.0,15.0,94,0.05,,,0.19,meteohub,2013-02-10 09:42:00,
2013-02-10 03:47:00,38.7,37.0,29.15,SSE,163,3.0,15.0,94,0.06,,,0.20,meteohub,2013-02-10 09:47:00,
2013-02-10 03:52:00,38.8,37.2,29.14,SSE,149,6.0,13.0,94,0.06,,,0.20,meteohub,2013-02-10 09:52:00,
2013-02-10 03:57:00,38.8,37.2,29.13,SSE,150,4.0,14.0,94,0.06,,,0.20,meteohub,2013-02-10 09:57:00,
2013-02-10 04:02:00,38.8,37.2,29.14,SSW,199,8.0,16.0,94,0.06,,,0.20,meteohub,2013-02-10 10:02:00,
2013-02-10 04:07:00,39.0,37.4,29.14,South,178,3.0,16.0,94,0.06,,,0.20,meteohub,2013-02-10 10:07:00,
2013-02-10 04:12:00,39.0,37.4,29.13,SSE,159,5.0,16.0,94,0.07,,,0.21,meteohub,2013-02-10 10:12:00,
2013-02-10 04:17:00,39.2,37.6,29.13,SSE,159,6.0,12.0,94,0.07,,,0.22,meteohub,2013-02-10 10:17:00,
2013-02-10 04:22:00,39.4,37.8,29.13,SSE,165,2.0,12.0,94,0.07,,,0.22,meteohub,2013-02-10 10:22:00,
2013-02-10 04:27:00,39.4,37.8,29.12,SSE,148,4.0,11.0,94,0.05,,,0.22,meteohub,2013-02-10 10:27:00,
2013-02-10 04:32:00,39.4,37.8,29.12,SSE,159,3.0,10.0,94,0.04,,,0.22,meteohub,2013-02-10 10:32:00,
2013-02-10 04:37:00,39.4,37.8,29.11,SE,137,1.0,10.0,94,0.03,,,0.22,meteohub,2013-02-10 10:37:00,
2013-02-10 04:42:00,39.4,37.8,29.11,SE,126,8.0,11.0,94,0.03,,,0.22,meteohub,2013-02-10 10:42:00,
2013-02-10 04:47:00,39.6,37.9,29.10,SE,131,6.0,11.0,94,0.02,,,0.22,meteohub,2013-02-10 10:47:00,
2013-02-10 04:52:00,39.6,37.9,29.10,ESE,108,7.0,11.0,94,0.02,,,0.22,meteohub,2013-02-10 10:52:00,
2013-02-10 04:57:00,39.6,37.9,29.10,SE,144,10.0,11.0,94,0.02,,,0.22,meteohub,2013-02-10 10:57:00,
2013-02-10 05:02:00,39.7,38.1,29.10,SE,132,10.0,13.0,94,0.02,,,0.22,meteohub,2013-02-10 11:02:00,
2013-02-10 05:07:00,39.7,38.1,29.10,SSE,147,6.0,13.0,94,0.02,,,0.22,meteohub,2013-02-10 11:07:00,
2013-02-10 05:12:00,39.7,38.1,29.10,SSE,157,4.0,13.0,94,0.00,,,0.22,meteohub,2013-02-10 11:12:00,
2013-02-10 05:17:00,39.9,38.3,29.10,SE,140,2.0,14.0,94,0.00,,,0.22,meteohub,2013-02-10 11:17:00,
2013-02-10 05:22:00,40.1,38.5,29.09,SSE,159,2.0,19.0,94,0.00,,,0.22,meteohub,2013-02-10 11:22:00,
2013-02-10 05:27:00,40.1,38.5,29.09,South,177,5.0,19.0,94,0.00,,,0.22,meteohub,2013-02-10 11:27:00,
2013-02-10 05:32:00,40.3,38.7,29.08,SE,126,6.0,19.0,94,0.00,,,0.22,meteohub,2013-02-10 11:32:00,
2013-02-10 05:37:00,40.3,38.7,29.08,South,173,4.0,14.0,94,0.00,,,0.22,meteohub,2013-02-10 11:37:00,
2013-02-10 05:42:00,40.3,38.7,29.06,SE,126,10.0,14.0,94,0.00,,,0.22,meteohub,2013-02-10 11:42:00,
2013-02-10 05:47:00,40.3,38.7,29.06,SSE,151,5.0,13.0,94,0.00,,,0.22,meteohub,2013-02-10 11:47:00,
2013-02-10 05:52:00,40.3,38.7,29.06,SE,134,8.0,14.0,94,0.00,,,0.22,meteohub,2013-02-10 11:52:00,
2013-02-10 05:57:00,40.3,38.7,29.05,SE,127,10.0,14.0,94,0.00,,,0.22,meteohub,2013-02-10 11:57:00,
2013-02-10 06:02:00,40.3,38.7,29.05,SE,140,6.0,14.0,94,0.00,,,0.22,meteohub,2013-02-10 12:02:00,
2013-02-10 06:07:00,40.3,38.7,29.05,SSE,149,5.0,13.0,94,0.00,,,0.22,meteohub,2013-02-10 12:07:00,
2013-02-10 06:12:00,40.5,38.8,29.04,ESE,115,6.0,13.0,94,0.00,,,0.22,meteohub,2013-02-10 12:12:00,
2013-02-10 06:17:00,40.5,38.8,29.03,SE,143,5.0,14.0,94,0.00,,,0.22,meteohub,2013-02-10 12:17:00,
2013-02-10 06:22:00,40.5,38.8,29.03,SE,132,6.0,14.0,94,0.00,,,0.22,meteohub,2013-02-10 12:22:00,
2013-02-10 06:27:00,40.5,38.7,29.03,SE,138,4.0,14.0,93,0.00,,,0.22,meteohub,2013-02-10 12:27:00,
2013-02-10 06:32:00,40.6,38.8,29.03,SE,140,5.0,14.0,93,0.00,,,0.22,meteohub,2013-02-10 12:32:00,
2013-02-10 06:37:00,40.6,38.8,29.02,SSE,150,6.0,15.0,93,0.00,,,0.22,meteohub,2013-02-10 12:37:00,
2013-02-10 06:42:00,40.8,39.0,29.02,SSE,147,4.0,20.0,93,0.00,,,0.22,meteohub,2013-02-10 12:42:00,
2013-02-10 06:47:00,41.0,39.2,29.02,ESE,113,15.0,20.0,93,0.00,,,0.22,meteohub,2013-02-10 12:47:00,
2013-02-10 06:52:00,41.2,39.4,29.00,South,190,10.0,20.0,93,0.00,,,0.22,meteohub,2013-02-10 12:52:00,
2013-02-10 06:57:00,41.4,39.6,29.00,SE,134,9.0,21.0,93,0.00,,,0.22,meteohub,2013-02-10 12:57:00,
2013-02-10 07:02:00,41.5,39.7,29.02,SSE,155,10.0,21.0,93,0.00,,,0.22,meteohub,2013-02-10 13:02:00,
2013-02-10 07:07:00,41.5,39.7,29.01,SSE,162,10.0,21.0,93,0.01,,,0.23,meteohub,2013-02-10 13:07:00,
2013-02-10 07:12:00,41.7,39.9,29.00,SE,140,10.0,19.0,93,0.04,,,0.26,meteohub,2013-02-10 13:12:00,
2013-02-10 07:17:00,41.9,40.1,29.00,SSE,157,12.0,19.0,93,0.05,,,0.27,meteohub,2013-02-10 13:17:00,
2013-02-10 07:22:00,42.3,40.6,29.00,SSE,166,11.0,18.0,94,0.05,,,0.27,meteohub,2013-02-10 13:22:00,
2013-02-10 07:28:00,42.4,40.8,29.00,South,169,6.0,18.0,94,0.05,,,0.27,meteohub,2013-02-10 13:28:00,
2013-02-10 07:33:00,42.6,41.0,29.00,SSE,163,7.0,18.0,94,0.05,,,0.27,meteohub,2013-02-10 13:33:00,
2013-02-10 07:38:00,42.6,41.0,28.99,SE,142,7.0,21.0,94,0.05,,,0.27,meteohub,2013-02-10 13:38:00,
2013-02-10 07:43:00,42.6,41.0,28.99,ESE,118,16.0,21.0,94,0.05,,,0.27,meteohub,2013-02-10 13:43:00,
2013-02-10 07:48:00,42.8,41.2,29.00,South,175,4.0,21.0,94,0.05,,,0.27,meteohub,2013-02-10 13:48:00,
2013-02-10 07:53:00,43.0,41.4,29.00,SSE,153,4.0,21.0,94,0.05,,,0.27,meteohub,2013-02-10 13:53:00,
2013-02-10 07:58:00,43.3,41.7,28.99,SE,139,7.0,21.0,94,0.05,,,0.27,meteohub,2013-02-10 13:58:00,
2013-02-10 08:03:00,43.3,41.7,28.99,SSE,163,4.0,18.0,94,0.05,,,0.27,meteohub,2013-02-10 14:03:00,
2013-02-10 08:08:00,43.3,41.7,28.99,SE,144,5.0,21.0,94,0.02,,,0.27,meteohub,2013-02-10 14:08:00,
2013-02-10 08:13:00,43.5,41.9,28.99,SSE,157,4.0,21.0,94,0.00,,,0.27,meteohub,2013-02-10 14:13:00,
2013-02-10 08:18:00,43.9,42.3,28.98,South,189,8.0,17.0,94,0.00,,,0.27,meteohub,2013-02-10 14:18:00,
2013-02-10 08:23:00,44.2,42.6,28.98,SSE,159,5.0,17.0,94,0.01,,,0.28,meteohub,2013-02-10 14:23:00,
2013-02-10 08:28:00,44.4,42.8,28.97,SSE,151,5.0,15.0,94,0.02,,,0.29,meteohub,2013-02-10 14:28:00,
2013-02-10 08:33:00,44.4,42.8,28.97,SE,138,16.0,20.0,94,0.02,,,0.29,meteohub,2013-02-10 14:33:00,
2013-02-10 08:38:00,44.4,42.8,28.97,SE,146,9.0,23.0,94,0.02,,,0.29,meteohub,2013-02-10 14:38:00,
2013-02-10 08:43:00,44.2,42.6,28.97,SSE,159,6.0,23.0,94,0.02,,,0.29,meteohub,2013-02-10 14:43:00,
2013-02-10 08:48:00,44.2,42.6,28.96,SE,140,9.0,23.0,94,0.02,,,0.29,meteohub,2013-02-10 14:48:00,
2013-02-10 08:53:00,44.2,42.6,28.96,SE,146,9.0,19.0,94,0.02,,,0.29,meteohub,2013-02-10 14:53:00,
2013-02-10 08:58:00,44.4,42.8,28.95,SSE,155,4.0,19.0,94,0.02,,,0.29,meteohub,2013-02-10 14:58:00,
2013-02-10 09:03:00,44.4,42.8,28.95,SSE,159,10.0,19.0,94,0.02,,,0.29,meteohub,2013-02-10 15:03:00,
2013-02-10 09:08:00,44.6,43.0,28.94,SSE,148,12.0,19.0,94,0.02,,,0.29,meteohub,2013-02-10 15:08:00,
2013-02-10 09:13:00,44.8,43.2,28.93,SE,143,7.0,21.0,94,0.03,,,0.30,meteohub,2013-02-10 15:13:00,
2013-02-10 09:18:00,44.8,43.2,28.93,SSE,162,6.0,21.0,94,0.03,,,0.30,meteohub,2013-02-10 15:18:00,
2013-02-10 09:23:00,45.0,43.3,28.93,South,180,4.0,21.0,94,0.03,,,0.31,meteohub,2013-02-10 15:23:00,
2013-02-10 09:28:00,45.0,43.7,28.93,SSW,203,6.0,18.0,95,0.02,,,0.31,meteohub,2013-02-10 15:28:00,
2013-02-10 09:33:00,45.1,43.9,28.92,SE,127,11.0,17.0,95,0.02,,,0.31,meteohub,2013-02-10 15:33:00,
2013-02-10 09:39:00,45.1,43.9,28.92,South,172,4.0,18.0,95,0.02,,,0.31,meteohub,2013-02-10 15:39:00,
2013-02-10 09:44:00,45.3,44.1,28.91,South,173,7.0,18.0,95,0.02,,,0.31,meteohub,2013-02-10 15:44:00,
2013-02-10 09:49:00,45.5,44.2,28.90,SSE,164,4.0,18.0,95,0.02,,,0.31,meteohub,2013-02-10 15:49:00,
2013-02-10 09:54:00,45.7,44.4,28.90,South,187,8.0,19.0,95,0.02,,,0.31,meteohub,2013-02-10 15:54:00,
2013-02-10 09:59:00,45.9,44.4,28.90,SE,142,6.0,20.0,95,0.03,,,0.32,meteohub,2013-02-10 15:59:00,
2013-02-10 10:04:00,45.9,44.4,28.90,SSE,148,6.0,20.0,95,0.03,,,0.32,meteohub,2013-02-10 16:04:00,
2013-02-10 10:09:00,46.0,44.6,28.90,SSE,161,4.0,20.0,95,0.03,,,0.32,meteohub,2013-02-10 16:09:00,
2013-02-10 10:14:00,46.2,44.8,28.90,South,178,14.0,19.0,95,0.02,,,0.32,meteohub,2013-02-10 16:14:00,
2013-02-10 10:19:00,46.6,45.1,28.90,South,171,4.0,19.0,95,0.02,,,0.32,meteohub,2013-02-10 16:19:00,
2013-02-10 10:24:00,46.8,45.3,28.90,SE,144,24.0,24.0,95,0.01,,,0.32,meteohub,2013-02-10 16:24:00,
2013-02-10 10:29:00,46.9,45.5,28.90,SSW,195,6.0,22.0,95,0.01,,,0.32,meteohub,2013-02-10 16:29:00,
2013-02-10 10:34:00,47.1,45.7,28.89,SSW,192,6.0,24.0,95,0.01,,,0.32,meteohub,2013-02-10 16:34:00,
2013-02-10 10:39:00,47.5,46.0,28.89,SSE,163,5.0,24.0,95,0.01,,,0.32,meteohub,2013-02-10 16:39:00,
2013-02-10 10:44:00,47.8,46.4,28.88,South,190,10.0,19.0,95,0.01,,,0.32,meteohub,2013-02-10 16:44:00,
2013-02-10 10:49:00,48.0,46.6,28.88,South,169,5.0,19.0,95,0.01,,,0.32,meteohub,2013-02-10 16:49:00,
2013-02-10 10:54:00,48.4,46.9,28.88,SSE,153,6.0,19.0,95,0.01,,,0.32,meteohub,2013-02-10 16:54:00,
2013-02-10 10:59:00,48.6,47.1,28.89,SSE,151,7.0,21.0,95,0.00,,,0.32,meteohub,2013-02-10 16:59:00,
2013-02-10 11:04:00,48.9,47.5,28.88,South,173,16.0,21.0,95,0.00,,,0.32,meteohub,2013-02-10 17:04:00,
2013-02-10 11:09:00,49.3,47.7,28.87,South,184,7.0,21.0,94,0.00,,,0.32,meteohub,2013-02-10 17:09:00,
2013-02-10 11:14:00,49.8,48.2,28.87,SSE,148,10.0,20.0,94,0.00,,,0.32,meteohub,2013-02-10 17:14:00,
2013-02-10 11:19:00,50.4,48.7,28.87,South,178,12.0,24.0,94,0.00,,,0.32,meteohub,2013-02-10 17:19:00,
2013-02-10 11:24:00,50.7,48.7,28.87,SSE,164,9.0,24.0,93,0.00,,,0.32,meteohub,2013-02-10 17:24:00,
2013-02-10 11:29:00,51.1,48.9,28.87,South,169,13.0,20.0,92,0.00,,,0.32,meteohub,2013-02-10 17:29:00,
2013-02-10 11:34:00,51.3,48.7,28.86,South,172,11.0,24.0,91,0.00,,,0.32,meteohub,2013-02-10 17:34:00,
2013-02-10 11:39:00,51.4,48.9,28.86,SSE,168,21.0,24.0,91,0.00,,,0.32,meteohub,2013-02-10 17:39:00,
2013-02-10 11:44:00,51.4,48.6,28.86,SSE,163,9.0,24.0,90,0.00,,,0.32,meteohub,2013-02-10 17:44:00,
2013-02-10 11:49:00,51.3,48.4,28.86,SSE,164,16.0,25.0,90,0.00,,,0.32,meteohub,2013-02-10 17:49:00,
2013-02-10 11:55:00,51.3,48.4,28.85,South,188,14.0,25.0,90,0.00,,,0.32,meteohub,2013-02-10 17:55:00,
2013-02-10 12:00:00,51.3,48.4,28.85,South,177,7.0,22.0,90,0.00,,,0.32,meteohub,2013-02-10 18:00:00,
2013-02-10 12:05:00,51.3,48.4,28.85,South,184,5.0,27.0,90,0.00,,,0.32,meteohub,2013-02-10 18:05:00,
2013-02-10 12:10:00,51.3,48.4,28.85,South,183,16.0,27.0,90,0.00,,,0.32,meteohub,2013-02-10 18:10:00,
2013-02-10 12:15:00,51.4,48.6,28.84,South,188,13.0,27.0,90,0.00,,,0.32,meteohub,2013-02-10 18:15:00,
2013-02-10 12:20:00,51.4,48.6,28.84,South,176,5.0,26.0,90,0.00,,,0.32,meteohub,2013-02-10 18:20:00,
2013-02-10 12:25:00,51.4,48.6,28.84,South,175,13.0,26.0,90,0.00,,,0.32,meteohub,2013-02-10 18:25:00,
2013-02-10 12:30:00,51.4,48.6,28.83,SSW,192,4.0,26.0,90,0.00,,,0.32,meteohub,2013-02-10 18:30:00,
2013-02-10 12:35:00,51.6,48.7,28.84,South,190,10.0,21.0,90,0.00,,,0.32,meteohub,2013-02-10 18:35:00,
2013-02-10 12:40:00,51.8,48.9,28.84,SSE,148,6.0,21.0,90,0.00,,,0.32,meteohub,2013-02-10 18:40:00,
2013-02-10 12:45:00,52.0,49.1,28.83,South,181,4.0,21.0,90,0.00,,,0.32,meteohub,2013-02-10 18:45:00,
2013-02-10 12:50:00,52.0,49.1,28.83,SSW,209,5.0,21.0,90,0.00,,,0.32,meteohub,2013-02-10 18:50:00,
2013-02-10 12:55:00,52.2,49.3,28.83,SSW,192,6.0,15.0,90,0.00,,,0.32,meteohub,2013-02-10 18:55:00,
2013-02-10 13:00:00,52.3,49.5,28.83,South,177,10.0,18.0,90,0.00,,,0.32,meteohub,2013-02-10 19:00:00,
2013-02-10 13:05:00,52.9,50.0,28.82,SE,141,4.0,21.0,90,0.00,,,0.32,meteohub,2013-02-10 19:05:00,
2013-02-10 13:10:00,53.2,50.4,28.81,South,171,11.0,24.0,90,0.00,,,0.32,meteohub,2013-02-10 19:10:00,
2013-02-10 13:15:00,53.8,50.5,28.80,South,171,7.0,27.0,89,0.00,,,0.32,meteohub,2013-02-10 19:15:00,
2013-02-10 13:20:00,54.3,50.9,28.80,South,169,20.0,27.0,88,0.00,,,0.32,meteohub,2013-02-10 19:20:00,
2013-02-10 13:25:00,54.9,51.1,28.79,South,173,10.0,27.0,87,0.00,,,0.32,meteohub,2013-02-10 19:25:00,
2013-02-10 13:30:00,55.4,51.6,28.79,South,188,5.0,24.0,87,0.00,,,0.32,meteohub,2013-02-10 19:30:00,
2013-02-10 13:35:00,55.8,51.6,28.78,South,173,9.0,24.0,86,0.00,,,0.32,meteohub,2013-02-10 19:35:00,
2013-02-10 13:40:00,55.9,51.4,28.78,SSW,194,16.0,26.0,85,0.00,,,0.32,meteohub,2013-02-10 19:40:00,
2013-02-10 13:46:00,56.3,51.4,28.78,SSW,201,11.0,29.0,84,0.00,,,0.32,meteohub,2013-02-10 19:46:00,
2013-02-10 13:51:00,56.7,51.8,28.78,SSW,201,3.0,29.0,84,0.00,,,0.32,meteohub,2013-02-10 19:51:00,
2013-02-10 13:56:00,56.8,52.0,28.79,South,188,5.0,29.0,84,0.00,,,0.32,meteohub,2013-02-10 19:56:00,
2013-02-10 14:01:00,56.8,51.8,28.79,SSW,195,23.0,23.0,83,0.00,,,0.32,meteohub,2013-02-10 20:01:00,
2013-02-10 14:06:00,57.0,52.0,28.79,SW,220,16.0,24.0,83,0.00,,,0.32,meteohub,2013-02-10 20:06:00,
2013-02-10 14:11:00,57.4,52.0,28.78,South,170,6.0,24.0,82,0.00,,,0.32,meteohub,2013-02-10 20:11:00,
2013-02-10 14:16:00,58.1,51.6,28.78,SSW,202,11.0,27.0,79,0.00,,,0.32,meteohub,2013-02-10 20:16:00,
2013-02-10 14:21:00,58.6,51.4,28.78,SSW,196,18.0,27.0,77,0.00,,,0.32,meteohub,2013-02-10 20:21:00,
2013-02-10 14:26:00,59.0,51.4,28.77,SSW,209,9.0,33.0,76,0.00,,,0.32,meteohub,2013-02-10 20:26:00,
2013-02-10 14:31:00,59.4,51.4,28.77,South,185,9.0,33.0,75,0.00,,,0.32,meteohub,2013-02-10 20:31:00,
2013-02-10 14:36:00,59.5,50.9,28.77,SW,236,7.0,33.0,73,0.00,,,0.32,meteohub,2013-02-10 20:36:00,
2013-02-10 14:41:00,59.9,50.5,28.76,SSW,196,14.0,22.0,71,0.00,,,0.32,meteohub,2013-02-10 20:41:00,
2013-02-10 14:46:00,60.1,49.8,28.76,South,171,13.0,31.0,69,0.00,,,0.32,meteohub,2013-02-10 20:46:00,
2013-02-10 14:51:00,60.1,49.5,28.76,SSE,162,12.0,31.0,68,0.00,,,0.32,meteohub,2013-02-10 20:51:00,
2013-02-10 14:56:00,60.3,50.4,28.76,South,188,3.0,32.0,70,0.00,,,0.32,meteohub,2013-02-10 20:56:00,
2013-02-10 15:01:00,60.4,51.1,28.75,SW,229,10.0,32.0,71,0.00,,,0.32,meteohub,2013-02-10 21:01:00,
2013-02-10 15:06:00,60.4,49.8,28.75,SSW,205,10.0,27.0,68,0.00,,,0.32,meteohub,2013-02-10 21:06:00,
2013-02-10 15:11:00,60.6,48.0,28.75,WSW,243,10.0,27.0,63,0.00,,,0.32,meteohub,2013-02-10 21:11:00,
2013-02-10 15:16:00,60.8,49.5,28.75,South,171,11.0,30.0,66,0.00,,,0.32,meteohub,2013-02-10 21:16:00,
2013-02-10 15:21:00,61.0,48.4,28.76,SW,223,14.0,30.0,63,0.00,,,0.32,meteohub,2013-02-10 21:21:00,
2013-02-10 15:26:00,61.2,45.3,28.76,SW,221,6.0,29.0,56,0.00,,,0.32,meteohub,2013-02-10 21:26:00,
2013-02-10 15:31:00,61.3,43.5,28.77,South,178,16.0,30.0,52,0.00,,,0.32,meteohub,2013-02-10 21:31:00,
2013-02-10 15:36:00,61.5,39.4,28.77,SSW,202,6.0,30.0,44,0.00,,,0.32,meteohub,2013-02-10 21:36:00,
2013-02-10 15:41:00,61.5,38.3,28.77,SW,217,15.0,30.0,42,0.00,,,0.32,meteohub,2013-02-10 21:41:00,
2013-02-10 15:46:00,61.3,36.9,28.77,SW,215,23.0,33.0,40,0.00,,,0.32,meteohub,2013-02-10 21:46:00,
2013-02-10 15:52:00,61.3,37.4,28.77,SSW,197,10.0,33.0,41,0.00,,,0.32,meteohub,2013-02-10 21:52:00,
2013-02-10 15:57:00,61.2,36.0,28.77,SW,219,15.0,33.0,39,0.00,,,0.32,meteohub,2013-02-10 21:57:00,
2013-02-10 16:02:00,61.0,36.5,28.78,SSW,202,10.0,32.0,40,0.00,,,0.32,meteohub,2013-02-10 22:02:00,
2013-02-10 16:07:00,60.8,37.6,28.78,SW,226,4.0,29.0,42,0.00,,,0.32,meteohub,2013-02-10 22:07:00,
2013-02-10 16:12:00,60.6,37.4,28.79,WSW,247,11.0,29.0,42,0.00,,,0.32,meteohub,2013-02-10 22:12:00,
2013-02-10 16:17:00,60.4,36.7,28.79,SSW,204,14.0,26.0,41,0.00,,,0.32,meteohub,2013-02-10 22:17:00,
2013-02-10 16:22:00,60.3,37.8,28.79,WSW,254,15.0,27.0,43,0.00,,,0.32,meteohub,2013-02-10 22:22:00,
2013-02-10 16:27:00,60.1,36.3,28.79,SSW,209,2.0,27.0,41,0.00,,,0.32,meteohub,2013-02-10 22:27:00,
2013-02-10 16:32:00,59.7,36.0,28.80,SSW,212,5.0,27.0,41,0.00,,,0.32,meteohub,2013-02-10 22:32:00,
2013-02-10 16:37:00,59.4,36.3,28.81,WSW,257,13.0,30.0,42,0.00,,,0.32,meteohub,2013-02-10 22:37:00,
2013-02-10 16:42:00,59.0,35.4,28.82,WSW,250,17.0,30.0,41,0.00,,,0.32,meteohub,2013-02-10 22:42:00,
2013-02-10 16:47:00,58.6,35.6,28.82,SSW,192,5.0,28.0,42,0.00,,,0.32,meteohub,2013-02-10 22:47:00,
2013-02-10 16:52:00,58.5,36.7,28.82,SW,225,10.0,28.0,44,0.00,,,0.32,meteohub,2013-02-10 22:52:00,
2013-02-10 16:57:00,57.9,36.7,28.82,SW,235,9.0,28.0,45,0.00,,,0.32,meteohub,2013-02-10 22:57:00,
2013-02-10 17:02:00,57.4,36.1,28.83,WSW,249,14.0,26.0,45,0.00,,,0.32,meteohub,2013-02-10 23:02:00,
2013-02-10 17:07:00,57.0,37.0,28.83,WSW,254,21.0,26.0,47,0.00,,,0.32,meteohub,2013-02-10 23:07:00,
2013-02-10 17:12:00,56.7,35.6,28.83,SW,229,6.0,29.0,45,0.00,,,0.32,meteohub,2013-02-10 23:12:00,
2013-02-10 17:17:00,56.5,36.0,28.84,WSW,258,13.0,29.0,46,0.00,,,0.32,meteohub,2013-02-10 23:17:00,
2013-02-10 17:22:00,55.9,36.0,28.84,South,185,17.0,29.0,47,0.00,,,0.32,meteohub,2013-02-10 23:22:00,
2013-02-10 17:27:00,55.4,35.4,28.84,South,182,3.0,25.0,47,0.00,,,0.32,meteohub,2013-02-10 23:27:00,
2013-02-10 17:32:00,54.9,35.1,28.85,SW,228,28.0,28.0,47,0.00,,,0.32,meteohub,2013-02-10 23:32:00,
2013-02-10 17:37:00,54.7,34.3,28.86,West,260,5.0,28.0,46,0.00,,,0.32,meteohub,2013-02-10 23:37:00,
2013-02-10 17:42:00,54.3,34.5,28.86,WSW,242,10.0,30.0,47,0.00,,,0.32,meteohub,2013-02-10 23:42:00,
2013-02-10 17:47:00,54.0,34.2,28.86,West,266,12.0,30.0,47,0.00,,,0.32,meteohub,2013-02-10 23:47:00,
2013-02-10 17:52:00,53.8,34.5,28.87,SW,232,19.0,27.0,48,0.00,,,0.32,meteohub,2013-02-10 23:52:00,
2013-02-10 17:57:00,53.4,35.2,28.87,WSW,257,17.0,32.0,50,0.00,,,0.32,meteohub,2013-02-10 23:57:00,
2013-02-10 18:02:00,53.1,35.4,28.87,WSW,250,9.0,32.0,51,0.00,,,0.32,meteohub,2013-02-11 00:02:00,
2013-02-10 18:07:00,52.5,36.0,28.88,WSW,246,6.0,32.0,53,0.00,,,0.00,meteohub,2013-02-11 00:07:00,
2013-02-10 18:12:00,52.2,36.0,28.88,SW,232,6.0,20.0,54,0.00,,,0.00,meteohub,2013-02-11 00:12:00,
2013-02-10 18:17:00,51.8,35.6,28.89,West,275,1.0,19.0,54,0.00,,,0.00,meteohub,2013-02-11 00:17:00,
2013-02-10 18:22:00,51.6,35.6,28.89,SW,221,12.0,20.0,54,0.00,,,0.00,meteohub,2013-02-11 00:22:00,
2013-02-10 18:27:00,51.4,35.8,28.89,SSW,212,8.0,24.0,55,0.00,,,0.00,meteohub,2013-02-11 00:27:00,
2013-02-10 18:32:00,51.3,35.6,28.90,WSW,244,23.0,24.0,55,0.00,,,0.00,meteohub,2013-02-11 00:32:00,
2013-02-10 18:37:00,51.1,35.1,28.90,SW,227,4.0,28.0,54,0.00,,,0.00,meteohub,2013-02-11 00:37:00,
2013-02-10 18:42:00,50.7,35.1,28.90,WSW,254,8.0,28.0,55,0.00,,,0.00,meteohub,2013-02-11 00:42:00,
2013-02-10 18:48:00,50.5,35.1,28.90,South,184,7.0,28.0,55,0.00,,,0.00,meteohub,2013-02-11 00:48:00,
2013-02-10 18:53:00,50.4,34.9,28.90,SW,234,14.0,27.0,55,0.00,,,0.00,meteohub,2013-02-11 00:53:00,
2013-02-10 18:58:00,50.2,35.1,28.90,WSW,238,16.0,23.0,56,0.00,,,0.00,meteohub,2013-02-11 00:58:00,
2013-02-10 19:03:00,50.0,34.9,28.91,WSW,245,20.0,24.0,56,0.00,,,0.00,meteohub,2013-02-11 01:03:00,
2013-02-10 19:08:00,50.2,34.7,28.91,SW,227,10.0,26.0,55,0.00,,,0.00,meteohub,2013-02-11 01:08:00,
2013-02-10 19:13:00,50.4,35.2,28.91,SW,216,7.0,27.0,56,0.00,,,0.00,meteohub,2013-02-11 01:13:00,
2013-02-10 19:18:00,50.4,35.2,28.91,West,265,3.0,27.0,56,0.00,,,0.00,meteohub,2013-02-11 01:18:00,
2013-02-10 19:23:00,50.4,34.9,28.92,WSW,240,12.0,27.0,55,0.00,,,0.00,meteohub,2013-02-11 01:23:00,
2013-02-10 19:28:00,50.4,34.9,28.92,WSW,246,7.0,30.0,55,0.00,,,0.00,meteohub,2013-02-11 01:28:00,
2013-02-10 19:33:00,50.4,35.2,28.92,WSW,246,9.0,30.0,56,0.00,,,0.00,meteohub,2013-02-11 01:33:00,
2013-02-10 19:38:00,50.2,34.7,28.92,West,265,16.0,30.0,55,0.00,,,0.00,meteohub,2013-02-11 01:38:00,
2013-02-10 19:43:00,49.8,33.8,28.92,West,264,18.0,40.0,54,0.00,,,0.00,meteohub,2013-02-11 01:43:00,
2013-02-10 19:48:00,49.6,33.6,28.93,WSW,249,7.0,40.0,54,0.00,,,0.00,meteohub,2013-02-11 01:48:00,
2013-02-10 19:53:00,49.3,34.2,28.92,WSW,257,8.0,40.0,56,0.00,,,0.00,meteohub,2013-02-11 01:53:00,
2013-02-10 19:58:00,48.9,34.3,28.92,West,266,6.0,35.0,57,0.00,,,0.00,meteohub,2013-02-11 01:58:00,
2013-02-10 20:03:00,48.6,34.0,28.93,West,275,12.0,35.0,57,0.00,,,0.00,meteohub,2013-02-11 02:03:00,
2013-02-10 20:08:00,48.6,33.6,28.93,SW,234,20.0,27.0,56,0.00,,,0.00,meteohub,2013-02-11 02:08:00,
2013-02-10 20:13:00,48.4,33.4,28.93,SSW,201,5.0,27.0,56,0.00,,,0.00,meteohub,2013-02-11 02:13:00,
2013-02-10 20:18:00,48.0,33.4,28.94,SW,221,6.0,29.0,57,0.00,,,0.00,meteohub,2013-02-11 02:18:00,
2013-02-10 20:23:00,47.8,33.3,28.94,SW,227,6.0,29.0,57,0.00,,,0.00,meteohub,2013-02-11 02:23:00,
2013-02-10 20:28:00,47.5,33.8,28.94,West,259,20.0,28.0,59,0.00,,,0.00,meteohub,2013-02-11 02:28:00,
2013-02-10 20:33:00,47.5,33.1,28.95,West,281,18.0,25.0,57,0.00,,,0.00,meteohub,2013-02-11 02:33:00,
2013-02-10 20:38:00,47.1,32.7,28.95,WSW,252,17.0,30.0,57,0.00,,,0.00,meteohub,2013-02-11 02:38:00,
2013-02-10 20:44:00,46.8,32.4,28.95,WSW,248,24.0,30.0,57,0.00,,,0.00,meteohub,2013-02-11 02:44:00,
2013-02-10 20:49:00,46.4,32.0,28.96,WSW,257,16.0,31.0,57,0.00,,,0.00,meteohub,2013-02-11 02:49:00,
2013-02-10 20:54:00,46.2,32.2,28.96,WNW,291,14.0,31.0,58,0.00,,,0.00,meteohub,2013-02-11 02:54:00,
2013-02-10 20:59:00,45.9,32.4,28.96,West,259,17.0,30.0,59,0.00,,,0.00,meteohub,2013-02-11 02:59:00,
2013-02-10 21:04:00,45.9,32.7,28.96,WSW,251,30.0,30.0,60,0.00,,,0.00,meteohub,2013-02-11 03:04:00,
2013-02-10 21:09:00,45.7,32.5,28.96,WSW,246,19.0,30.0,60,0.00,,,0.00,meteohub,2013-02-11 03:09:00,
2013-02-10 21:14:00,45.3,31.8,28.97,WSW,249,24.0,30.0,59,0.00,,,0.00,meteohub,2013-02-11 03:14:00,
2013-02-10 21:19:00,45.1,31.3,28.97,SW,234,12.0,34.0,58,0.00,,,0.00,meteohub,2013-02-11 03:19:00,
2013-02-10 21:24:00,45.0,31.1,28.97,WSW,249,27.0,34.0,58,0.00,,,0.00,meteohub,2013-02-11 03:24:00,
2013-02-10 21:29:00,44.6,31.1,28.97,WSW,240,13.0,34.0,59,0.00,,,0.00,meteohub,2013-02-11 03:29:00,
2013-02-10 21:34:00,44.4,30.2,28.97,SW,233,14.0,32.0,57,0.00,,,0.00,meteohub,2013-02-11 03:34:00,
2013-02-10 21:39:00,44.2,30.4,28.98,WSW,254,19.0,34.0,58,0.00,,,0.00,meteohub,2013-02-11 03:39:00,
2013-02-10 21:44:00,43.9,30.6,28.98,WSW,253,10.0,34.0,59,0.00,,,0.00,meteohub,2013-02-11 03:44:00,
2013-02-10 21:49:00,43.9,30.9,28.98,WSW,256,10.0,34.0,60,0.00,,,0.00,meteohub,2013-02-11 03:49:00,
2013-02-10 21:54:00,43.5,30.6,28.99,West,266,13.0,28.0,60,0.00,,,0.00,meteohub,2013-02-11 03:54:00,
2013-02-10 21:59:00,43.5,30.6,28.99,WSW,242,22.0,27.0,60,0.00,,,0.00,meteohub,2013-02-11 03:59:00,
2013-02-10 22:04:00,43.7,30.7,28.99,SW,231,15.0,28.0,60,0.00,,,0.00,meteohub,2013-02-11 04:04:00,
2013-02-10 22:09:00,43.5,30.6,28.99,WSW,246,17.0,30.0,60,0.00,,,0.00,meteohub,2013-02-11 04:09:00,
2013-02-10 22:14:00,43.5,30.6,28.99,South,181,5.0,33.0,60,0.00,,,0.00,meteohub,2013-02-11 04:14:00,
2013-02-10 22:19:00,43.3,30.7,28.99,WSW,256,11.0,35.0,61,0.00,,,0.00,meteohub,2013-02-11 04:19:00,
2013-02-10 22:24:00,43.3,30.7,29.00,West,267,19.0,35.0,61,0.00,,,0.00,meteohub,2013-02-11 04:24:00,
2013-02-10 22:29:00,43.2,30.6,29.00,WSW,257,15.0,35.0,61,0.00,,,0.00,meteohub,2013-02-11 04:29:00,
2013-02-10 22:34:00,43.2,31.1,29.00,SW,217,9.0,33.0,62,0.00,,,0.00,meteohub,2013-02-11 04:34:00,
2013-02-10 22:39:00,43.0,30.4,29.00,WSW,254,15.0,32.0,61,0.00,,,0.00,meteohub,2013-02-11 04:39:00,
2013-02-10 22:44:00,43.0,30.0,29.01,SW,223,14.0,32.0,60,0.00,,,0.00,meteohub,2013-02-11 04:44:00,
2013-02-10 22:50:00,43.0,30.4,29.01,WSW,244,19.0,33.0,61,0.00,,,0.00,meteohub,2013-02-11 04:50:00,
2013-02-10 22:55:00,42.6,30.6,29.01,WNW,286,15.0,40.0,62,0.00,,,0.00,meteohub,2013-02-11 04:55:00,
2013-02-10 23:00:00,42.6,30.6,29.02,SW,233,14.0,40.0,62,0.00,,,0.00,meteohub,2013-02-11 05:00:00,
2013-02-10 23:01:00,42.4,30.4,29.02,West,261,16.0,33.0,62,0.00,,,0.00,meteohub,2013-02-11 05:01:00,
2013-02-10 23:06:00,42.4,30.7,29.02,West,276,17.0,33.0,63,0.00,,,0.00,meteohub,2013-02-11 05:06:00,
2013-02-10 23:11:00,42.3,29.8,29.02,SSW,206,11.0,33.0,61,0.00,,,0.00,meteohub,2013-02-11 05:11:00,
2013-02-10 23:16:00,42.1,29.7,29.02,WSW,255,27.0,37.0,61,0.00,,,0.00,meteohub,2013-02-11 05:16:00,
2013-02-10 23:21:00,41.9,29.8,29.03,WNW,285,15.0,37.0,62,0.00,,,0.00,meteohub,2013-02-11 05:21:00,
2013-02-10 23:26:00,41.5,29.8,29.04,WNW,282,14.0,35.0,63,0.00,,,0.00,meteohub,2013-02-11 05:26:00,
2013-02-10 23:31:00,41.4,29.7,29.04,SW,232,11.0,34.0,63,0.00,,,0.00,meteohub,2013-02-11 05:31:00,
2013-02-10 23:36:00,41.2,29.5,29.05,West,264,15.0,34.0,63,0.00,,,0.00,meteohub,2013-02-11 05:36:00,
2013-02-10 23:41:00,40.8,29.7,29.05,WSW,255,22.0,27.0,64,0.00,,,0.00,meteohub,2013-02-11 05:41:00,
2013-02-10 23:46:00,40.6,29.5,29.05,WSW,247,15.0,28.0,64,0.00,,,0.00,meteohub,2013-02-11 05:46:00,
2013-02-10 23:51:00,40.5,29.3,29.06,West,271,11.0,28.0,64,0.00,,,0.00,meteohub,2013-02-11 05:51:00,
2013-02-10 23:56:00,40.3,28.2,29.06,WNW,290,9.0,28.0,62,0.00,,,0.00,meteohub,2013-02-11 05:56:00,